Terminal Aerodrome Forecast
Issued by NWS Shreveport, LA

Home | Current Version | Previous Version | Text Only | Print | Product List | Glossary On
Versions: 1 2 3 4 5 6 7 8 9 10 11 12 13
000
FTUS44 KSHV 020539
TAFLFK
TAF
KLFK 020539Z 0206/0306 VRB03KT P6SM SCT050 BKN140 BKN250
     FM020900 VRB03KT 4SM BR BKN100
      TEMPO 0210/0213 1SM BR
     FM021300 12004KT P6SM SCT040 BKN100 BKN250
     FM021600 14006KT P6SM VCTS SCT040CB BKN100 OVC140
     FM030100 14004KT P6SM SCT050 BKN120 BKN250=

USA.gov is the U.S. government's official web portal to all federal, state and local government web resources and services.